createdAt,value
2022-08-10T00:00:16.636Z,0
2022-08-10T00:05:21.256Z,1
2022-08-10T00:10:19.678Z,2
2022-08-10T00:15:53.669Z,5
2022-08-10T00:20:19.615Z,7
2022-08-10T00:25:16.629Z,7
2022-08-10T00:30:19.635Z,6
2022-08-10T00:35:19.682Z,8
2022-08-10T00:40:37.381Z,8
2022-08-10T00:45:19.587Z,5
2022-08-10T00:50:19.629Z,5
2022-08-10T00:55:16.663Z,6
2022-08-10T01:00:19.649Z,6
2022-08-10T01:05:19.622Z,6
2022-08-10T01:10:16.662Z,5
2022-08-10T01:15:21.231Z,7
2022-08-10T01:20:30.253Z,7
2022-08-10T01:25:16.645Z,7
2022-08-10T01:30:19.694Z,6
2022-08-10T01:35:19.609Z,6
2022-08-10T01:40:16.880Z,6
2022-08-10T01:45:19.698Z,6
2022-08-10T01:50:18.078Z,8
2022-08-10T01:55:16.721Z,5
2022-08-10T02:00:19.679Z,6
2022-08-10T02:05:19.679Z,7
2022-08-10T02:10:19.682Z,6
2022-08-10T02:15:19.638Z,7
2022-08-10T02:20:21.283Z,7
2022-08-10T02:25:39.708Z,6
2022-08-10T02:30:16.704Z,6
2022-08-10T02:35:22.328Z,6
2022-08-10T02:45:01.079Z,6
2022-08-10T02:45:15.578Z,6
2022-08-10T02:45:18.849Z,6
2022-08-10T02:45:31.216Z,5
2022-08-10T02:50:16.685Z,6
2022-08-10T02:55:21.285Z,4
2022-08-10T03:00:19.764Z,4
2022-08-10T03:05:16.713Z,6
2022-08-10T03:10:16.572Z,6
2022-08-10T03:15:19.691Z,6
2022-08-10T03:20:37.767Z,4
2022-08-10T03:25:19.719Z,4
2022-08-10T03:30:31.705Z,4
2022-08-10T03:35:19.667Z,7
2022-08-10T03:40:19.683Z,5
2022-08-10T03:45:19.670Z,3
2022-08-10T03:50:45.678Z,5
2022-08-10T03:56:27.141Z,3
2022-08-10T03:56:30.546Z,3
2022-08-10T04:00:16.016Z,4
2022-08-10T04:05:17.395Z,5
2022-08-10T04:10:19.015Z,4
2022-08-10T04:15:18.948Z,6
2022-08-10T04:20:18.984Z,4
2022-08-10T04:25:19.005Z,5
2022-08-10T04:30:16.024Z,4
2022-08-10T04:35:15.999Z,4
2022-08-10T04:40:29.792Z,5
2022-08-10T04:45:18.935Z,5
2022-08-10T04:50:16.075Z,3
2022-08-10T04:55:16.019Z,3
2022-08-10T05:00:17.953Z,4
2022-08-10T05:05:15.999Z,3
2022-08-10T05:10:16.042Z,3
2022-08-10T05:15:17.425Z,3
2022-08-10T05:20:16.069Z,4
2022-08-10T05:25:16.051Z,4
2022-08-10T05:30:16.069Z,3
2022-08-10T05:35:19.001Z,4
2022-08-10T05:40:19.029Z,3
2022-08-10T05:45:16.055Z,2
2022-08-10T05:50:17.475Z,3
2022-08-10T05:55:17.223Z,4
2022-08-10T06:00:39.747Z,5
2022-08-10T06:05:16.107Z,3
2022-08-10T06:10:31.068Z,4
2022-08-10T06:15:22.033Z,4
2022-08-10T06:20:20.512Z,4
2022-08-10T06:26:08.184Z,4
2022-08-10T06:30:20.367Z,4
2022-08-10T06:35:18.998Z,4
2022-08-10T06:40:16.011Z,4
2022-08-10T06:45:16.064Z,2
2022-08-10T06:50:45.392Z,1
2022-08-10T06:55:20.495Z,5
2022-08-10T07:00:20.302Z,4
2022-08-10T07:05:19.071Z,3
2022-08-10T07:10:18.998Z,3
2022-08-10T07:15:16.023Z,5
2022-08-10T07:20:19.103Z,4
2022-08-10T07:25:19.017Z,5
2022-08-10T07:30:20.629Z,3
2022-08-10T07:35:19.003Z,4
2022-08-10T07:40:19.135Z,3
2022-08-10T07:45:16.099Z,2
2022-08-10T07:50:19.035Z,4
2022-08-10T07:55:19.058Z,3
2022-08-10T08:00:16.061Z,5
2022-08-10T08:05:55.169Z,3
2022-08-10T08:10:16.052Z,4
2022-08-10T08:16:19.700Z,6
2022-08-10T08:16:24.456Z,6
2022-08-10T08:20:19.090Z,5
2022-08-10T08:25:19.051Z,4
2022-08-10T08:30:26.917Z,4
2022-08-10T08:35:20.623Z,4
2022-08-10T08:40:16.105Z,4
2022-08-10T08:45:19.083Z,3
2022-08-10T08:50:19.159Z,4
2022-08-10T08:55:55.103Z,4
2022-08-10T09:00:19.110Z,4
2022-08-10T09:05:19.029Z,3
2022-08-10T09:10:20.529Z,4
2022-08-10T09:15:40.760Z,3
2022-08-10T09:20:19.028Z,4
2022-08-10T09:25:19.066Z,4
2022-08-10T09:30:16.208Z,2
2022-08-10T09:36:24.755Z,3
2022-08-10T09:36:32.989Z,3
2022-08-10T09:40:59.526Z,3
2022-08-10T09:45:20.715Z,3
2022-08-10T09:50:19.138Z,2
2022-08-10T09:55:19.054Z,3
2022-08-10T10:00:16.141Z,4
2022-08-10T10:05:16.180Z,3
2022-08-10T10:10:19.229Z,3
2022-08-10T10:15:25.336Z,4
2022-08-10T10:20:20.736Z,4
2022-08-10T10:25:20.733Z,5
2022-08-10T10:30:19.070Z,3
2022-08-10T10:35:19.136Z,4
2022-08-10T10:40:19.145Z,4
2022-08-10T10:45:19.119Z,4
2022-08-10T10:50:19.162Z,3
2022-08-10T10:55:20.641Z,4
2022-08-10T11:00:19.161Z,3
2022-08-10T11:05:19.107Z,4
2022-08-10T11:10:32.958Z,4
2022-08-10T11:15:19.202Z,3
2022-08-10T11:20:19.201Z,5
2022-08-10T11:25:16.138Z,5
2022-08-10T11:30:20.859Z,5
2022-08-10T11:35:16.194Z,3
2022-08-10T11:40:16.175Z,3
2022-08-10T11:45:19.237Z,3
2022-08-10T11:50:19.232Z,3
2022-08-10T11:55:16.203Z,3
2022-08-10T12:00:16.171Z,3
2022-08-10T12:05:17.653Z,4
2022-08-10T12:10:16.184Z,4
2022-08-10T12:15:19.179Z,3
2022-08-10T12:20:19.165Z,3
2022-08-10T12:25:55.062Z,2
2022-08-10T12:30:19.177Z,3
2022-08-10T12:35:17.999Z,5
2022-08-10T12:40:37.169Z,3
2022-08-10T12:45:19.159Z,4
2022-08-10T12:50:33.026Z,3
2022-08-10T12:55:19.288Z,2
2022-08-10T13:00:19.229Z,3
2022-08-10T13:05:16.240Z,3
2022-08-10T13:10:19.206Z,3
2022-08-10T13:15:44.976Z,3
2022-08-10T13:20:16.192Z,2
2022-08-10T13:25:19.214Z,3
2022-08-10T13:30:16.258Z,2
2022-08-10T13:35:19.273Z,3
2022-08-10T13:40:19.310Z,4
2022-08-10T13:45:19.194Z,4
2022-08-10T13:50:20.754Z,2
2022-08-10T13:55:16.225Z,3
2022-08-10T14:00:34.983Z,3
2022-08-10T14:05:19.249Z,3
2022-08-10T14:10:19.206Z,3
2022-08-10T14:15:19.178Z,2
2022-08-10T14:20:21.792Z,2
2022-08-10T14:25:20.883Z,4
2022-08-10T14:30:19.176Z,2
2022-08-10T14:36:20.170Z,2
2022-08-10T14:36:24.754Z,2
2022-08-10T14:40:19.226Z,2
2022-08-10T14:45:19.291Z,2
2022-08-10T14:50:32.659Z,2
2022-08-10T14:55:20.147Z,2
2022-08-10T15:00:30.876Z,2
2022-08-10T15:05:16.286Z,3
2022-08-10T15:10:19.329Z,3
2022-08-10T15:15:28.097Z,3
2022-08-10T15:20:16.284Z,2
2022-08-10T15:25:17.875Z,3
2022-08-10T15:30:19.245Z,2
2022-08-10T15:35:20.698Z,1
2022-08-10T15:40:24.404Z,3
2022-08-10T15:45:19.288Z,2
2022-08-10T15:50:16.276Z,1
2022-08-10T15:55:43.130Z,1
2022-08-10T16:00:19.303Z,2
2022-08-10T16:05:19.264Z,2
2022-08-10T16:10:26.149Z,3
2022-08-10T16:15:19.247Z,3
2022-08-10T16:20:16.296Z,3
2022-08-10T16:25:19.248Z,2
2022-08-10T16:30:19.284Z,2
2022-08-10T16:35:19.251Z,4
2022-08-10T16:40:19.376Z,2
2022-08-10T16:45:20.755Z,2
2022-08-10T16:50:19.267Z,2
2022-08-10T16:55:24.662Z,3
2022-08-10T17:00:22.255Z,2
2022-08-10T17:06:03.511Z,3
2022-08-10T17:10:19.255Z,2
2022-08-10T17:15:16.384Z,2
2022-08-10T17:20:30.355Z,2
2022-08-10T17:25:19.272Z,3
2022-08-10T17:30:33.695Z,4
2022-08-10T17:35:23.070Z,4
2022-08-10T17:40:19.425Z,4
2022-08-10T17:45:46.327Z,6
2022-08-10T17:50:19.282Z,4
2022-08-10T17:55:17.846Z,5
2022-08-10T18:00:19.350Z,5
2022-08-10T18:05:16.378Z,3
2022-08-10T18:10:19.311Z,5
2022-08-10T18:15:19.347Z,4
2022-08-10T18:20:20.035Z,5
2022-08-10T18:25:16.290Z,5
2022-08-10T18:30:18.057Z,4
2022-08-10T18:35:16.308Z,6
2022-08-10T18:40:19.290Z,6
2022-08-10T18:45:21.090Z,5
2022-08-10T18:50:19.304Z,5
2022-08-10T18:55:22.895Z,4
2022-08-10T19:00:20.855Z,5
2022-08-10T19:05:30.064Z,6
2022-08-10T19:10:19.309Z,5
2022-08-10T19:15:19.296Z,5
2022-08-10T19:20:19.308Z,7
2022-08-10T19:25:19.386Z,6
2022-08-10T19:26:44.737Z,6
2022-08-10T19:30:19.362Z,4
2022-08-10T19:35:20.863Z,6
2022-08-10T19:40:33.962Z,6
2022-08-10T19:46:01.953Z,5
2022-08-10T19:50:16.433Z,5
2022-08-10T19:55:19.377Z,4
2022-08-10T20:00:22.761Z,3
2022-08-10T20:05:19.349Z,3
2022-08-10T20:10:20.881Z,5
2022-08-10T20:15:19.345Z,6
2022-08-10T20:20:19.350Z,5
2022-08-10T20:25:20.790Z,5
2022-08-10T20:30:19.367Z,4
2022-08-10T20:35:19.355Z,5
2022-08-10T20:40:19.368Z,6
2022-08-10T20:45:21.578Z,5
2022-08-10T20:50:19.469Z,4
2022-08-10T20:55:19.361Z,4
2022-08-10T21:00:19.366Z,6
2022-08-10T21:05:16.400Z,4
2022-08-10T21:10:20.240Z,4
2022-08-10T21:15:20.951Z,4
2022-08-10T21:20:19.385Z,4
2022-08-10T21:25:19.375Z,5
2022-08-10T21:30:16.400Z,4
2022-08-10T21:35:20.309Z,5
2022-08-10T21:40:35.238Z,4
2022-08-10T21:45:19.436Z,5
2022-08-10T21:50:27.333Z,5
2022-08-10T21:55:19.424Z,5
2022-08-10T22:00:16.423Z,5
2022-08-10T22:05:20.256Z,4
2022-08-10T22:10:19.448Z,4
2022-08-10T22:15:19.423Z,5
2022-08-10T22:20:24.754Z,4
2022-08-10T22:25:21.123Z,3
2022-08-10T22:30:23.095Z,5
2022-08-10T22:35:19.414Z,5
2022-08-10T22:40:19.519Z,3
2022-08-10T22:45:19.429Z,2
2022-08-10T22:50:19.426Z,4
2022-08-10T22:55:16.420Z,3
2022-08-10T23:00:28.726Z,3
2022-08-10T23:05:19.437Z,3
2022-08-10T23:10:19.441Z,3
2022-08-10T23:15:19.404Z,4
2022-08-10T23:20:19.416Z,3
2022-08-10T23:25:19.458Z,3
2022-08-10T23:30:19.442Z,2
2022-08-10T23:36:31.132Z,3
2022-08-10T23:36:34.398Z,3
2022-08-10T23:40:16.477Z,3
2022-08-10T23:45:19.432Z,4
2022-08-10T23:50:19.500Z,3
2022-08-10T23:55:16.493Z,4
